KLOL/LOL METAR and TAF weather

Enter ICAO airport designator
Station Type Date Time Source
KLOL METAR 2018/12/12 06:53 UTC NOAA

KLOL 120653Z AUTO 17004KT 10SM CLR M02/M03 A3010 RMK AO2 SLP215 T10171033


Station Type Date Time Source
KLOL Decoded METAR 2018/12/12 06:53 UTC NOAA

LOVELOCK DERBY FIELD, NV, United States (KLOL) 40-04N 118-34W 1189M
Dec 12, 2018 - 01:53 AM EST / 2018.12.12 0653 UTC
Wind: from the S (170 degrees) at 5 MPH (4 KT):0
Visibility: 10 mile(s):0
Sky conditions: clear
Temperature: 28.9 F (-1.7 C)
Windchill: 23 F (-5 C):1
Dew Point: 26.1 F (-3.3 C)
Relative Humidity: 88%
Pressure (altimeter): 30.1 in. Hg (1019 hPa)
ob: KLOL 120653Z AUTO 17004KT 10SM CLR M02/M03 A3010 RMK AO2 SLP215 T10171033
cycle: 7

Station Type Date Time Source
KLOL TAF 2010/01/05 05:22 UTC NOAA

TAF KLOL 050522Z 0506/0606 00000KT 1/4SM FZFG VV001
FM052000 VRB03KT 3SM BR OVC002
AMD NOT SKED


Example: see airport list